Time;durP1;ratioP1;P1;durP2;ratioP2;P2;SDS_P1;SDS_P2;PMS_P1;PMS_P2;Temp;Humidity;BMP_temperature;BMP_pressure;BME280_temperature;BME280_humidity;BME280_pressure;Samples;Min_cycle;Max_cycle;Signal;HPM_P1;HPM_P2
2022/07/13 00:01:29;;;;;;;6.15;1.45;;;;;;;18.53;71.67;101337.44;5150984;27;20407;-74
2022/07/13 00:04:32;;;;;;;4.68;1.92;;;;;;;18.46;71.82;101326.44;5151611;27;20608;-73
2022/07/13 00:07:36;;;;;;;3.40;1.70;;;;;;;18.38;72.29;101331.47;5139642;27;20537;-73
2022/07/13 00:10:40;;;;;;;3.80;1.88;;;;;;;18.45;71.92;101329.22;5152257;27;20049;-73
2022/07/13 00:13:43;;;;;;;6.28;1.60;;;;;;;18.36;71.48;101318.31;5152151;27;20448;-73
2022/07/13 00:16:46;;;;;;;4.45;1.67;;;;;;;18.57;70.63;101325.69;5130641;27;20046;-73
2022/07/13 00:19:50;;;;;;;5.85;1.63;;;;;;;18.45;71.53;101329.22;5131017;27;20557;-73
2022/07/13 00:22:54;;;;;;;5.03;1.70;;;;;;;18.45;71.64;101329.22;5130016;27;20081;-73
2022/07/13 00:25:58;;;;;;;3.90;1.70;;;;;;;18.43;71.63;101320.53;5131129;27;20309;-73
2022/07/13 00:29:01;;;;;;;4.55;1.98;;;;;;;18.39;71.71;101314.63;5135050;27;20049;-73
2022/07/13 00:32:04;;;;;;;3.60;1.85;;;;;;;18.56;70.78;101319.50;5151623;27;20061;-73
2022/07/13 00:35:08;;;;;;;5.28;1.65;;;;;;;18.54;71.05;101323.25;5151182;27;20130;-73
2022/07/13 00:38:11;;;;;;;3.72;1.50;;;;;;;18.35;72.05;101319.28;5137935;27;20403;-73
2022/07/13 00:41:15;;;;;;;2.65;1.45;;;;;;;18.47;71.53;101316.69;5151033;27;20042;-73
2022/07/13 00:44:18;;;;;;;4.82;2.03;;;;;;;18.49;71.52;101325.38;5150906;27;20505;-73
2022/07/13 00:47:22;;;;;;;6.22;1.38;;;;;;;18.40;71.84;101324.25;5151731;27;20414;-72
2022/07/13 00:50:25;;;;;;;5.18;1.83;;;;;;;18.32;72.31;101330.09;5151383;27;20831;-73
2022/07/13 00:53:29;;;;;;;2.92;1.95;;;;;;;18.35;72.49;101321.94;5150933;27;20079;-73
2022/07/13 00:56:32;;;;;;;2.45;1.60;;;;;;;18.17;72.90;101317.97;5150557;27;20116;-73
2022/07/13 00:59:36;;;;;;;4.03;1.63;;;;;;;18.20;72.94;101320.38;5137665;27;20099;-73
2022/07/13 01:02:41;;;;;;;3.30;2.00;;;;;;;18.15;73.35;101322.50;5138261;27;20041;-73
2022/07/13 01:05:45;;;;;;;3.50;1.73;;;;;;;18.12;73.52;101317.44;5151073;27;20054;-73
2022/07/13 01:08:48;;;;;;;6.53;1.90;;;;;;;18.03;73.87;101323.41;5151243;27;20041;-73
2022/07/13 01:11:53;;;;;;;4.05;2.00;;;;;;;18.03;73.31;101326.91;5137036;27;20466;-73
2022/07/13 01:14:57;;;;;;;2.65;1.50;;;;;;;18.33;72.03;101315.06;5150589;27;20083;-73
2022/07/13 01:18:01;;;;;;;2.92;1.48;;;;;;;18.11;73.19;101311.31;5150370;27;20111;-73
2022/07/13 01:21:09;;;;;;;3.55;1.50;;;;;;;18.04;73.38;101315.34;5137336;27;20041;-73
2022/07/13 01:24:13;;;;;;;3.45;1.70;;;;;;;17.99;73.99;101311.31;5149612;27;20098;-72
2022/07/13 01:27:17;;;;;;;3.10;1.52;;;;;;;18.06;73.82;101313.44;5149977;27;20045;-72
2022/07/13 01:30:20;;;;;;;4.03;1.60;;;;;;;18.06;73.54;101305.50;5138515;27;20406;-72
2022/07/13 01:33:24;;;;;;;2.92;1.63;;;;;;;18.06;73.69;101300.22;5149973;27;20038;-72
2022/07/13 01:36:29;;;;;;;2.97;1.40;;;;;;;17.97;74.30;101292.09;5116669;27;20419;-72
2022/07/13 01:39:32;;;;;;;3.85;1.92;;;;;;;18.08;74.33;101294.78;5116478;27;20407;-72
2022/07/13 01:42:50;;;;;;;6.15;1.77;;;;;;;18.00;74.28;101284.78;5116413;27;20087;-72
2022/07/13 01:45:54;;;;;;;5.93;1.83;;;;;;;18.03;74.27;101286.34;5116576;27;20542;-73
2022/07/13 01:48:58;;;;;;;3.80;1.88;;;;;;;18.14;73.70;101281.13;5116260;27;20055;-73
2022/07/13 01:52:02;;;;;;;3.88;1.55;;;;;;;18.29;72.31;101287.97;5116273;27;20054;-73
2022/07/13 01:55:08;;;;;;;2.20;1.25;;;;;;;18.33;71.94;101284.13;5122056;27;20524;-72
2022/07/13 01:58:12;;;;;;;3.35;1.33;;;;;;;18.16;72.76;101279.22;5150179;27;20049;-73
2022/07/13 02:01:15;;;;;;;6.20;1.98;;;;;;;18.01;74.09;101277.66;5137690;27;20095;-73
2022/07/13 02:04:20;;;;;;;4.55;1.50;;;;;;;17.95;74.46;101272.81;5137401;27;20553;-73
2022/07/13 02:07:23;;;;;;;8.27;1.65;;;;;;;17.94;74.41;101271.13;5107935;28;20058;-73
2022/07/13 02:10:34;;;;;;;3.58;1.50;;;;;;;17.89;74.75;101274.94;5106771;28;20156;-73
2022/07/13 02:13:38;;;;;;;3.10;1.63;;;;;;;17.87;75.45;101271.56;5107975;28;20074;-73
2022/07/13 02:16:42;;;;;;;2.70;1.50;;;;;;;17.76;75.85;101274.09;5095470;28;20050;-73
2022/07/13 02:19:45;;;;;;;5.80;1.42;;;;;;;17.97;74.87;101266.47;5107547;28;20076;-73
2022/07/13 02:22:48;;;;;;;2.40;1.40;;;;;;;18.17;73.68;101254.44;5108229;28;20415;-73
2022/07/13 02:25:52;;;;;;;2.83;1.55;;;;;;;17.99;74.57;101247.81;5087185;28;20067;-73
2022/07/13 02:28:55;;;;;;;6.20;1.75;;;;;;;17.72;75.85;101251.47;5090134;28;20436;-73
2022/07/13 02:31:58;;;;;;;3.78;1.88;;;;;;;17.67;76.28;101259.69;5107521;28;20511;-73
2022/07/13 02:35:01;;;;;;;2.30;1.45;;;;;;;17.73;76.04;101250.50;5107197;28;20408;-73
2022/07/13 02:38:05;;;;;;;2.80;1.55;;;;;;;17.75;76.19;101251.25;5106612;28;20042;-73
2022/07/13 02:41:08;;;;;;;2.22;1.20;;;;;;;17.92;75.57;101254.50;5091647;28;20142;-73
2022/07/13 02:44:12;;;;;;;5.28;1.70;;;;;;;17.98;75.27;101257.56;5087024;28;20181;-73
2022/07/13 02:47:17;;;;;;;3.00;1.42;;;;;;;17.80;75.73;101258.88;5090194;28;20144;-73
2022/07/13 02:50:21;;;;;;;4.32;1.55;;;;;;;17.68;76.67;101276.44;5090674;28;20043;-73
2022/07/13 02:53:25;;;;;;;5.97;2.03;;;;;;;17.56;77.36;101283.41;5105221;28;20054;-73
2022/07/13 02:56:28;;;;;;;5.68;1.70;;;;;;;17.56;76.68;101274.66;5111596;28;20511;-72
2022/07/13 02:59:33;;;;;;;2.53;1.55;;;;;;;17.52;76.97;101266.09;5111787;28;20096;-73
2022/07/13 03:02:36;;;;;;;3.75;2.08;;;;;;;17.60;76.65;101262.91;5111925;28;20420;-73
2022/07/13 03:05:42;;;;;;;2.20;1.33;;;;;;;17.63;76.44;101262.69;5120707;27;20264;-73
2022/07/13 03:08:46;;;;;;;4.35;1.65;;;;;;;17.53;76.53;101256.34;5110689;28;20054;-73
2022/07/13 03:11:50;;;;;;;2.70;1.48;;;;;;;17.53;76.83;101243.13;5110899;28;20050;-73
2022/07/13 03:14:53;;;;;;;3.53;1.60;;;;;;;17.66;76.05;101246.59;5112864;27;20096;-72
2022/07/13 03:17:56;;;;;;;3.00;1.83;;;;;;;17.56;76.24;101243.75;5131033;27;20127;-72
2022/07/13 03:21:00;;;;;;;3.83;1.67;;;;;;;17.53;76.71;101248.41;5132045;27;20403;-72
2022/07/13 03:24:03;;;;;;;4.95;1.80;;;;;;;17.58;76.30;101243.63;5131420;27;20046;-73
2022/07/13 03:27:07;;;;;;;2.83;1.45;;;;;;;17.69;75.17;101241.09;5131064;27;20042;-73
2022/07/13 03:30:10;;;;;;;2.45;1.50;;;;;;;17.70;74.39;101242.78;5143116;27;20037;-73
2022/07/13 03:33:14;;;;;;;2.85;1.55;;;;;;;17.87;73.97;101242.47;5130893;27;20095;-73
2022/07/13 03:36:17;;;;;;;2.72;1.70;;;;;;;17.83;73.99;101259.50;5131886;27;20082;-73
2022/07/13 03:39:21;;;;;;;4.50;1.65;;;;;;;17.91;73.94;101242.25;5131165;27;20084;-73
2022/07/13 03:42:24;;;;;;;3.17;1.75;;;;;;;17.92;74.08;101238.63;5131072;27;20415;-73
2022/07/13 03:45:28;;;;;;;2.67;1.52;;;;;;;17.82;75.38;101241.09;5130785;27;20457;-73
2022/07/13 03:48:31;;;;;;;3.00;1.75;;;;;;;17.74;75.89;101236.34;5131202;27;20038;-72
2022/07/13 03:51:36;;;;;;;2.65;1.52;;;;;;;17.66;76.48;101242.16;5109642;28;20179;-77
2022/07/13 03:54:40;;;;;;;4.28;1.70;;;;;;;17.64;76.63;101240.56;5118048;27;20042;-76
2022/07/13 03:57:45;;;;;;;5.50;1.60;;;;;;;17.63;77.06;101241.53;5109658;27;20054;-75
2022/07/13 04:00:49;;;;;;;2.95;1.30;;;;;;;17.65;76.87;101229.88;5121145;27;20119;-74
2022/07/13 04:03:53;;;;;;;6.57;1.70;;;;;;;17.65;76.26;101229.06;5131488;27;20776;-75
2022/07/13 04:06:57;;;;;;;3.88;1.50;;;;;;;17.65;76.84;101229.06;5120857;27;20094;-71
2022/07/13 04:10:00;;;;;;;2.70;1.30;;;;;;;17.61;77.04;101228.44;5109587;28;20092;-78
2022/07/13 04:13:04;;;;;;;3.28;1.45;;;;;;;17.70;76.79;101224.25;5110080;28;20050;-76
2022/07/13 04:16:08;;;;;;;5.43;2.00;;;;;;;17.75;76.96;101214.22;5111050;28;20104;-77
2022/07/13 04:19:13;;;;;;;5.85;1.80;;;;;;;17.77;76.66;101222.94;5097641;28;20101;-72
2022/07/13 04:26:51;;;;;;;5.47;1.50;;;;;;;17.72;77.42;101221.53;5104021;28;20043;-74
2022/07/13 04:30:45;;;;;;;3.83;1.20;;;;;;;17.73;77.20;101221.41;5096163;28;20050;-73
2022/07/13 04:33:50;;;;;;;5.60;1.77;;;;;;;17.76;76.91;101233.56;5107742;28;20042;-73
2022/07/13 04:36:56;;;;;;;2.72;1.83;;;;;;;17.80;76.85;101225.31;5108278;28;20476;-72
2022/07/13 04:40:01;;;;;;;11.07;2.10;;;;;;;17.78;76.82;101223.75;5107712;28;20100;-71
2022/07/13 04:47:21;;;;;;;3.78;1.70;;;;;;;17.74;76.97;101214.31;5105691;28;20181;-73
2022/07/13 04:50:26;;;;;;;4.63;1.45;;;;;;;17.82;76.92;101210.19;5087125;28;20051;-72
2022/07/13 04:53:30;;;;;;;5.15;1.67;;;;;;;17.89;76.77;101215.88;5087527;28;20043;-76
2022/07/13 04:56:33;;;;;;;3.90;1.63;;;;;;;17.89;76.38;101211.44;5087379;28;20090;-77
2022/07/13 04:59:37;;;;;;;4.28;1.98;;;;;;;18.04;75.83;101213.94;5076618;28;20131;-76
2022/07/13 05:02:41;;;;;;;7.05;1.73;;;;;;;18.28;74.58;101212.16;5107723;28;20520;-79
2022/07/13 05:05:44;;;;;;;3.63;1.55;;;;;;;18.43;73.91;101214.63;5121078;27;20103;-77
2022/07/13 05:08:48;;;;;;;6.50;2.00;;;;;;;18.16;75.17;101223.63;5160746;27;20138;-77
2022/07/13 05:11:52;;;;;;;3.10;1.80;;;;;;;18.13;75.73;101226.50;5149435;27;20091;-78
2022/07/13 05:14:57;;;;;;;3.75;1.60;;;;;;;18.13;75.42;101218.56;5160440;27;20183;-79
2022/07/13 05:18:02;;;;;;;3.70;1.40;;;;;;;18.12;75.53;101230.09;5149917;27;20067;-77
2022/07/13 05:21:07;;;;;;;4.93;1.80;;;;;;;18.24;74.78;101221.25;5161572;27;20049;-77
2022/07/13 05:24:13;;;;;;;6.25;1.67;;;;;;;18.20;75.56;101219.81;5137841;27;20453;-77
2022/07/13 05:27:16;;;;;;;3.78;1.55;;;;;;;18.23;75.24;101218.75;5136648;27;20509;-77
2022/07/13 05:30:21;;;;;;;3.67;1.73;;;;;;;18.22;75.11;101220.56;5135868;27;20098;-77
2022/07/13 05:33:25;;;;;;;5.32;1.73;;;;;;;18.35;74.64;101223.97;5136194;27;20045;-78
2022/07/13 05:36:31;;;;;;;2.72;1.85;;;;;;;18.40;74.00;101214.84;5136340;27;20086;-77
2022/07/13 05:39:35;;;;;;;4.45;1.45;;;;;;;18.34;74.13;101210.84;5131626;27;20084;-77
2022/07/13 05:42:38;;;;;;;4.30;1.90;;;;;;;18.43;74.23;101215.44;5149072;27;20411;-77
2022/07/13 05:45:41;;;;;;;2.83;1.60;;;;;;;18.43;74.13;101219.91;5136438;27;20065;-77
2022/07/13 05:48:45;;;;;;;3.88;1.63;;;;;;;18.41;73.96;101221.81;5145029;27;20234;-77
2022/07/13 05:51:48;;;;;;;3.38;1.70;;;;;;;18.36;73.35;101222.16;5115022;27;20154;-77
2022/07/13 05:54:52;;;;;;;3.08;1.42;;;;;;;18.44;73.01;101217.16;5115540;27;20506;-77
2022/07/13 05:57:56;;;;;;;5.15;1.77;;;;;;;18.44;71.94;101227.75;5117651;27;20069;-78
2022/07/13 06:01:00;;;;;;;6.00;1.73;;;;;;;18.58;71.55;101218.78;5149184;27;20140;-76
2022/07/13 06:04:04;;;;;;;2.55;1.17;;;;;;;18.74;71.36;101215.84;5136951;27;20087;-76
2022/07/13 06:07:07;;;;;;;4.53;1.50;;;;;;;18.98;70.57;101215.78;5149139;27;20142;-76
2022/07/13 06:10:10;;;;;;;3.08;1.55;;;;;;;18.89;72.03;101221.78;5135112;27;20080;-76
2022/07/13 06:13:14;;;;;;;4.25;1.42;;;;;;;18.81;72.54;101212.59;5139170;27;20091;-76
2022/07/13 06:16:17;;;;;;;2.90;1.55;;;;;;;18.94;72.33;101214.31;5148850;27;20088;-76
2022/07/13 06:19:20;;;;;;;4.70;1.58;;;;;;;19.18;70.99;101217.75;5150269;27;20049;-76
2022/07/13 06:22:24;;;;;;;6.03;1.52;;;;;;;19.16;70.59;101214.34;5149688;27;20041;-76
2022/07/13 06:25:27;;;;;;;3.47;1.50;;;;;;;19.23;70.87;101204.97;5148068;27;20045;-76
2022/07/13 06:28:32;;;;;;;3.85;1.27;;;;;;;19.27;69.92;101211.72;5147935;27;20410;-75
2022/07/13 06:31:35;;;;;;;2.67;1.60;;;;;;;19.36;69.48;101204.84;5148770;27;20514;-75
2022/07/13 06:34:38;;;;;;;3.35;1.40;;;;;;;19.47;69.07;101196.06;5148141;27;20045;-74
2022/07/13 06:37:42;;;;;;;3.72;1.40;;;;;;;19.48;68.41;101197.72;5149281;27;20093;-77
2022/07/13 06:40:49;;;;;;;3.00;1.60;;;;;;;19.68;67.14;101199.66;5148423;27;20049;-75
2022/07/13 06:43:52;;;;;;;3.88;1.30;;;;;;;19.81;67.01;101204.00;5149490;27;20418;-75
2022/07/13 06:46:59;;;;;;;3.47;1.20;;;;;;;19.78;67.78;101205.06;5148444;27;20554;-75
2022/07/13 06:50:06;;;;;;;3.45;1.30;;;;;;;19.87;67.57;101204.34;5133024;27;20103;-76
2022/07/13 06:53:09;;;;;;;4.55;1.30;;;;;;;20.03;66.86;101195.97;5103635;28;20154;-65
2022/07/13 06:56:13;;;;;;;5.88;1.42;;;;;;;20.12;66.86;101192.56;5138863;27;20061;-66
2022/07/13 06:59:16;;;;;;;6.95;1.35;;;;;;;20.17;66.85;101195.72;5148099;27;20064;-66
2022/07/13 07:02:20;;;;;;;2.63;1.13;;;;;;;20.31;66.50;101193.72;5149158;27;20042;-66
2022/07/13 07:05:23;;;;;;;2.50;1.27;;;;;;;20.35;66.98;101195.97;5148591;27;20102;-66
2022/07/13 07:08:26;;;;;;;3.70;1.50;;;;;;;20.36;67.62;101199.50;5148277;27;20582;-66
2022/07/13 07:11:29;;;;;;;4.53;1.60;;;;;;;20.34;67.81;101202.28;5147566;27;20134;-66
2022/07/13 07:14:33;;;;;;;5.05;1.70;;;;;;;20.40;67.77;101200.94;5135033;27;20060;-67
2022/07/13 07:17:44;;;;;;;3.80;1.80;;;;;;;20.47;67.39;101190.63;5147977;27;20041;-66
2022/07/13 07:20:48;;;;;;;8.63;2.22;;;;;;;20.44;67.04;101192.56;5148270;27;20098;-74
2022/07/13 07:23:51;;;;;;;7.65;1.30;;;;;;;20.58;66.67;101188.81;5148159;27;20045;-74
2022/07/13 07:26:59;;;;;;;5.22;1.45;;;;;;;20.67;66.45;101195.16;5149153;27;20510;-74
2022/07/13 07:30:05;;;;;;;4.68;1.27;;;;;;;20.79;65.39;101193.28;5148991;27;20099;-74
2022/07/13 07:33:08;;;;;;;3.95;1.30;;;;;;;20.83;64.62;101192.03;5137871;27;20053;-74
2022/07/13 07:36:12;;;;;;;2.50;1.20;;;;;;;20.98;64.38;101195.22;5151622;27;20073;-74
2022/07/13 07:39:15;;;;;;;5.78;1.67;;;;;;;21.03;64.24;101187.69;5150948;27;20134;-75
2022/07/13 07:42:19;;;;;;;4.88;1.63;;;;;;;21.09;63.38;101187.13;5137824;27;20431;-74
2022/07/13 07:45:23;;;;;;;3.70;1.27;;;;;;;21.19;63.02;101188.06;5150545;27;20041;-74
2022/07/13 07:48:26;;;;;;;4.05;1.52;;;;;;;21.26;62.72;101185.69;5151972;27;20069;-74
2022/07/13 07:51:30;;;;;;;8.57;1.52;;;;;;;21.35;64.01;101184.94;5139533;27;20037;-74
2022/07/13 07:54:34;;;;;;;5.18;1.63;;;;;;;21.30;64.83;101184.44;5130545;27;20429;-74
2022/07/13 07:57:49;;;;;;;4.45;1.30;;;;;;;21.29;64.73;101178.28;5117392;27;20076;-75
2022/07/13 08:00:54;;;;;;;5.72;1.38;;;;;;;21.42;64.63;101178.09;5138615;27;20034;-74
2022/07/13 08:03:57;;;;;;;3.60;1.20;;;;;;;21.49;63.68;101176.56;5151179;27;20069;-75
2022/07/13 08:07:01;;;;;;;15.07;2.08;;;;;;;21.49;62.88;101173.06;5150167;27;20073;-75
2022/07/13 08:10:05;;;;;;;5.10;1.30;;;;;;;21.54;62.48;101171.69;5151112;27;20046;-75
2022/07/13 08:13:09;;;;;;;5.50;1.30;;;;;;;21.73;62.49;101175.38;5135256;27;20084;-74
2022/07/13 08:16:13;;;;;;;5.20;1.05;;;;;;;21.78;62.84;101173.16;5131191;27;20134;-74
2022/07/13 08:19:17;;;;;;;5.35;1.42;;;;;;;21.91;63.31;101163.06;5131035;27;20076;-75
2022/07/13 08:22:22;;;;;;;3.85;1.52;;;;;;;21.99;63.02;101163.25;5123754;27;20085;-74
2022/07/13 08:25:25;;;;;;;4.68;1.58;;;;;;;22.02;62.55;101154.13;5129537;27;20096;-75
2022/07/13 08:28:29;;;;;;;2.40;1.10;;;;;;;22.04;62.56;101160.13;5129726;27;20054;-77
2022/07/13 08:31:32;;;;;;;6.38;1.40;;;;;;;22.17;62.03;101162.56;5130342;27;20091;-74
2022/07/13 08:41:20;;;;;;;6.95;1.05;;;;;;;22.49;61.48;101156.94;5130737;27;20046;-75
2022/07/13 08:44:25;;;;;;;4.38;1.25;;;;;;;22.63;60.96;101147.69;5129956;27;20046;-74
2022/07/13 08:47:29;;;;;;;4.07;1.38;;;;;;;22.79;60.11;101131.09;5128715;27;20088;-74
2022/07/13 08:50:34;;;;;;;3.33;1.30;;;;;;;22.95;59.28;101142.00;5140803;27;20065;-75
2022/07/13 08:53:37;;;;;;;3.88;1.05;;;;;;;23.08;59.01;101123.84;5137835;27;20045;-75
2022/07/13 08:56:41;;;;;;;6.45;1.65;;;;;;;23.26;58.33;101121.25;5151127;27;20069;-74
2022/07/13 08:59:44;;;;;;;2.55;0.88;;;;;;;23.31;58.21;101116.28;5150853;27;20041;-74
2022/07/13 09:02:49;;;;;;;10.88;1.17;;;;;;;23.31;58.04;101112.78;5134311;27;20091;-75
2022/07/13 09:05:53;;;;;;;8.80;1.60;;;;;;;23.33;59.39;101108.97;5129684;27;20423;-75
2022/07/13 09:08:56;;;;;;;4.47;1.08;;;;;;;23.29;58.36;101112.91;5128891;27;20074;-75
2022/07/13 09:12:20;;;;;;;5.43;0.82;;;;;;;23.25;56.30;101111.53;5129153;27;20042;-75
2022/07/13 09:15:24;;;;;;;5.05;1.13;;;;;;;23.34;56.65;101113.31;5129604;27;20457;-75
2022/07/13 09:18:27;;;;;;;3.40;1.02;;;;;;;23.31;56.78;101110.94;5135251;27;20541;-75
2022/07/13 09:21:31;;;;;;;5.28;1.40;;;;;;;23.39;56.30;101113.72;5131132;27;20125;-75
2022/07/13 09:24:48;;;;;;;3.97;0.95;;;;;;;23.63;55.19;101099.78;5128790;27;20563;-75
2022/07/13 09:27:51;;;;;;;2.60;0.80;;;;;;;23.94;54.42;101098.63;5129042;27;20034;-75
2022/07/13 09:31:03;;;;;;;4.10;1.10;;;;;;;24.28;52.82;101099.59;5138994;27;20092;-75
2022/07/13 09:34:07;;;;;;;3.70;0.80;;;;;;;24.48;49.02;101100.25;5147272;27;20085;-75
2022/07/13 09:37:12;;;;;;;4.72;1.13;;;;;;;24.75;47.64;101091.22;5131655;27;20092;-75
2022/07/13 09:40:18;;;;;;;6.20;0.80;;;;;;;25.22;45.65;101087.28;5128989;27;20073;-75
2022/07/13 09:47:04;;;;;;;2.20;0.70;;;;;;;25.59;43.17;101073.50;5082739;28;20035;-75
2022/07/13 09:50:07;;;;;;;4.80;0.70;;;;;;;25.93;41.55;101078.75;5145167;27;20049;-75
2022/07/13 09:53:31;;;;;;;3.13;0.73;;;;;;;25.92;42.13;101077.06;5149854;27;20045;-75
2022/07/13 09:56:35;;;;;;;3.85;0.75;;;;;;;26.12;41.22;101066.84;5149663;27;20072;-75
2022/07/13 09:59:40;;;;;;;3.13;0.50;;;;;;;26.17;41.20;101071.72;5150625;27;20050;-75
2022/07/13 10:02:46;;;;;;;3.30;0.80;;;;;;;26.16;39.83;101073.56;5161325;27;20050;-75
2022/07/13 10:05:54;;;;;;;2.85;0.55;;;;;;;26.24;39.84;101071.88;5150600;27;20153;-75
2022/07/13 10:08:58;;;;;;;5.05;1.08;;;;;;;26.33;38.86;101076.22;5150646;27;20119;-75
2022/07/13 10:12:06;;;;;;;5.63;0.88;;;;;;;26.17;39.91;101069.88;5150111;27;20411;-75
2022/07/13 10:15:12;;;;;;;4.38;1.10;;;;;;;26.16;39.51;101078.06;5149313;27;20822;-75
2022/07/13 10:18:23;;;;;;;3.75;0.70;;;;;;;26.16;39.66;101070.88;5149143;27;20563;-76
2022/07/13 10:22:09;;;;;;;3.28;1.23;;;;;;;26.09;39.70;101074.38;5149626;27;20065;-75
2022/07/13 10:25:14;;;;;;;3.50;0.63;;;;;;;26.49;37.97;101065.50;5148233;27;20042;-75
2022/07/13 10:28:19;;;;;;;5.07;0.70;;;;;;;26.73;37.33;101071.81;5149247;27;20042;-74
2022/07/13 10:31:26;;;;;;;2.90;0.88;;;;;;;26.65;36.63;101070.81;5147982;27;20056;-75
2022/07/13 10:34:51;;;;;;;6.97;1.00;;;;;;;26.62;36.79;101065.81;5149870;27;20513;-75
2022/07/13 10:38:00;;;;;;;2.80;0.70;;;;;;;27.31;34.67;101054.44;5137196;27;20046;-75
2022/07/13 10:41:23;;;;;;;4.57;0.70;;;;;;;27.42;34.05;101054.06;5136377;27;20074;-76
2022/07/13 10:44:32;;;;;;;4.05;0.68;;;;;;;27.22;33.45;101056.38;5147484;27;20095;-76
2022/07/13 10:47:44;;;;;;;2.13;0.70;;;;;;;27.20;33.38;101061.06;5148397;27;20041;-75
2022/07/13 10:50:53;;;;;;;2.13;0.93;;;;;;;27.07;32.89;101053.56;5127663;28;20081;-75
2022/07/13 10:54:03;;;;;;;2.67;0.52;;;;;;;27.62;31.23;101061.66;5127413;27;20047;-76
2022/07/13 10:57:14;;;;;;;2.25;0.60;;;;;;;27.85;29.08;101065.19;5127568;27;20116;-75
2022/07/13 11:00:28;;;;;;;4.72;0.60;;;;;;;27.66;29.21;101050.34;5127736;28;20092;-76
2022/07/13 11:03:43;;;;;;;2.70;0.80;;;;;;;27.92;29.11;101041.97;5128365;27;20125;-76
2022/07/13 11:07:07;;;;;;;1.95;0.68;;;;;;;27.90;29.13;101049.38;5130254;27;20085;-76
2022/07/13 11:10:30;;;;;;;3.63;0.65;;;;;;;27.81;29.03;101045.91;5131548;27;20058;-76
2022/07/13 11:13:35;;;;;;;4.10;0.68;;;;;;;28.00;28.27;101047.25;5144575;27;20121;-76
2022/07/13 11:16:46;;;;;;;2.13;0.70;;;;;;;28.16;27.97;101040.06;5153156;27;20509;-75
2022/07/13 11:19:51;;;;;;;2.10;0.52;;;;;;;27.80;27.95;101030.81;5152831;27;20533;-73
2022/07/13 11:26:37;;;;;;;3.58;0.52;;;;;;;28.12;28.12;101014.56;5151764;27;20046;-75
2022/07/13 11:29:48;;;;;;;3.20;0.43;;;;;;;27.65;28.66;101012.94;5151962;27;20037;-75
2022/07/13 11:32:52;;;;;;;1.88;0.75;;;;;;;28.20;27.04;101022.53;5151528;27;20089;-76
2022/07/13 11:35:57;;;;;;;0.95;0.35;;;;;;;28.19;24.29;101010.13;5139114;27;20052;-74
2022/07/13 11:39:01;;;;;;;2.17;0.57;;;;;;;28.31;26.12;101011.34;5151695;27;20045;-74
2022/07/13 11:42:07;;;;;;;1.63;0.30;;;;;;;27.98;27.08;100987.50;5151462;27;20053;-74
2022/07/13 11:45:12;;;;;;;2.63;0.80;;;;;;;28.04;27.42;100991.28;5151771;27;20053;-78
2022/07/13 11:48:16;;;;;;;2.78;0.55;;;;;;;27.65;28.33;100980.69;5152068;27;20091;-67
2022/07/13 11:51:19;;;;;;;2.00;0.65;;;;;;;27.52;28.18;100976.78;5141322;27;20065;-66
2022/07/13 11:54:23;;;;;;;1.65;0.65;;;;;;;28.40;27.50;100959.19;5152633;27;20094;-66
2022/07/13 11:57:28;;;;;;;1.50;0.52;;;;;;;28.20;27.46;100974.16;5131348;27;20101;-65
2022/07/13 12:00:31;;;;;;;7.03;0.50;;;;;;;28.61;26.85;100962.94;5130883;27;20524;-65
2022/07/13 12:03:34;;;;;;;3.30;0.93;;;;;;;29.16;26.63;100961.53;5131410;27;20050;-66
2022/07/13 12:06:37;;;;;;;3.95;0.60;;;;;;;28.71;27.04;100952.72;5131718;27;20050;-66
2022/07/13 12:09:48;;;;;;;3.00;0.50;;;;;;;28.65;27.60;100964.22;5135905;27;20045;-65
2022/07/13 12:12:51;;;;;;;3.75;0.88;;;;;;;29.27;26.78;100955.66;5153076;27;20175;-65
2022/07/13 12:15:54;;;;;;;2.38;0.50;;;;;;;29.10;28.10;100954.22;5153057;27;20066;-65
2022/07/13 12:19:04;;;;;;;1.48;0.60;;;;;;;29.34;26.57;100951.16;5151659;27;20098;-65
2022/07/13 12:22:07;;;;;;;3.95;0.80;;;;;;;29.47;26.39;100949.59;5148570;27;20050;-65
2022/07/13 12:25:22;;;;;;;2.42;0.60;;;;;;;29.30;26.83;100940.97;5145794;27;20091;-66
2022/07/13 12:28:28;;;;;;;4.00;0.70;;;;;;;29.20;27.10;100934.03;5152948;27;20434;-65
2022/07/13 12:31:32;;;;;;;3.67;0.52;;;;;;;29.08;27.21;100940.13;5148297;27;20076;-72
2022/07/13 12:34:49;;;;;;;4.00;0.85;;;;;;;29.11;27.54;100927.13;5140132;27;20159;-73
2022/07/13 12:37:54;;;;;;;2.28;0.60;;;;;;;28.87;27.00;100906.72;5142779;27;20069;-71
2022/07/13 12:41:01;;;;;;;2.20;0.50;;;;;;;29.42;26.91;100916.00;5144326;27;20519;-71
2022/07/13 12:44:06;;;;;;;2.60;0.70;;;;;;;29.70;26.45;100907.13;5139506;27;20045;-65
2022/07/13 12:47:11;;;;;;;8.02;0.70;;;;;;;30.15;26.25;100918.38;5132059;27;20068;-66
2022/07/13 12:51:03;;;;;;;4.10;0.50;;;;;;;30.17;26.18;100919.03;5143250;27;20087;-66
2022/07/13 12:54:06;;;;;;;3.22;0.70;;;;;;;29.93;26.82;100911.41;5121650;27;20260;-65
2022/07/13 12:57:11;;;;;;;3.53;0.63;;;;;;;29.83;26.15;100912.59;5148534;27;20045;-65
2022/07/13 13:00:16;;;;;;;4.10;0.80;;;;;;;30.06;26.82;100889.94;5136360;27;20058;-65
2022/07/13 13:03:19;;;;;;;4.50;0.82;;;;;;;29.99;26.67;100889.88;5134491;27;20045;-65
2022/07/13 13:06:25;;;;;;;2.55;0.85;;;;;;;30.15;27.08;100883.31;5151355;27;20046;-66
2022/07/13 13:09:28;;;;;;;2.92;0.63;;;;;;;30.49;26.21;100868.16;5152138;27;20046;-65
2022/07/13 13:12:32;;;;;;;2.05;0.80;;;;;;;30.70;25.76;100865.31;5152273;27;20455;-64
2022/07/13 13:15:37;;;;;;;4.90;0.65;;;;;;;30.50;26.14;100857.13;5150965;27;20098;-65
2022/07/13 13:18:40;;;;;;;2.30;0.55;;;;;;;30.94;25.64;100865.78;5118065;27;20154;-65
2022/07/13 13:21:44;;;;;;;9.05;0.90;;;;;;;31.30;24.95;100856.44;5139458;27;20087;-66
2022/07/13 13:24:47;;;;;;;2.38;0.50;;;;;;;31.60;24.23;100849.59;5151543;27;20042;-66
2022/07/13 13:27:54;;;;;;;1.98;0.90;;;;;;;31.90;23.41;100838.31;5151643;27;20034;-66
2022/07/13 13:30:58;;;;;;;1.70;0.60;;;;;;;32.11;23.58;100840.75;5151260;27;20046;-65
2022/07/13 13:34:01;;;;;;;6.85;0.60;;;;;;;32.37;22.93;100834.38;5151653;27;20080;-65
2022/07/13 13:37:05;;;;;;;1.52;0.70;;;;;;;32.47;22.66;100831.22;5150543;27;20034;-65
2022/07/13 13:40:10;;;;;;;1.77;0.57;;;;;;;32.80;23.31;100819.34;5151299;27;20126;-65
2022/07/13 13:43:13;;;;;;;6.47;0.85;;;;;;;32.67;22.30;100822.97;5150763;27;20062;-66
2022/07/13 13:46:16;;;;;;;2.45;0.63;;;;;;;32.61;21.82;100826.53;5150091;27;20053;-68
2022/07/13 13:49:19;;;;;;;4.28;1.25;;;;;;;32.34;22.33;100817.75;5149702;27;20579;-66
2022/07/13 13:52:23;;;;;;;2.35;0.90;;;;;;;32.92;21.94;100822.19;5147002;27;20283;-65
2022/07/13 13:55:27;;;;;;;5.00;1.20;;;;;;;32.27;22.59;100823.19;5149770;27;20108;-65
2022/07/13 13:58:32;;;;;;;2.25;0.68;;;;;;;31.70;23.15;100808.59;5149847;27;20044;-65
2022/07/13 14:01:35;;;;;;;4.43;0.82;;;;;;;31.42;23.80;100811.56;5151148;27;20518;-66
2022/07/13 14:04:39;;;;;;;6.15;0.55;;;;;;;31.28;24.38;100803.47;5150252;27;20395;-65
2022/07/13 14:07:43;;;;;;;7.38;0.60;;;;;;;31.27;24.22;100807.22;5151396;27;20041;-67
2022/07/13 14:10:47;;;;;;;2.92;1.05;;;;;;;31.92;23.54;100798.38;5149957;27;20042;-67
2022/07/13 14:13:51;;;;;;;3.72;1.05;;;;;;;34.32;20.70;100792.56;5150169;27;20102;-65
2022/07/13 14:16:54;;;;;;;4.68;0.90;;;;;;;33.95;20.44;100787.19;5150474;27;20088;-66
2022/07/13 14:19:58;;;;;;;2.92;0.47;;;;;;;33.41;21.04;100786.13;5136928;27;20499;-64
2022/07/13 14:23:02;;;;;;;6.22;1.15;;;;;;;34.48;20.19;100778.34;5150671;27;20045;-64
2022/07/13 14:26:07;;;;;;;3.10;0.63;;;;;;;35.68;19.00;100767.34;5151146;27;20046;-64
2022/07/13 14:29:11;;;;;;;4.05;0.80;;;;;;;34.29;20.61;100760.47;5150467;27;20411;-64
2022/07/13 14:32:14;;;;;;;5.10;0.63;;;;;;;32.73;22.34;100762.53;5150829;27;20095;-64
2022/07/13 14:35:19;;;;;;;2.85;0.63;;;;;;;32.32;22.99;100757.59;5151270;27;20041;-71
2022/07/13 14:38:23;;;;;;;3.28;0.98;;;;;;;34.85;20.48;100770.06;5149783;27;20081;-66
2022/07/13 14:41:26;;;;;;;3.90;0.70;;;;;;;34.52;20.54;100767.00;5138543;27;20057;-65
2022/07/13 14:44:30;;;;;;;9.65;0.95;;;;;;;32.94;21.62;100764.03;5154012;27;20046;-66